Ladd AAF Airfield Fairbanks/Ft Wainwright US
ICAO: PAFB
IATA:
Category: Medium
Scheduled Services:

Elevation: 454 ft
TransAlt. 18000 ft.

Airport Communications:
FAIRBANKS APP:125.35
ATIS:134.25
CTAF:125
FAIRBANKS DEP:125.35
FAIRBANKS RDO:25.54
GND:121.7
MEDIVAC OPS:142.35
BASE OPS:118.9
PMSV METRO:128.8
TWR:125

PAFB Zoom In..

Runways:

(A) RW 07L length 8575 ft width 150 ft
---- / hdg 68

(B) RW 07R length 7280 ft width 75 ft
---- / hdg 68

(C) RW 25L length 7280 ft width 75 ft
---- / hdg 248

(D) RW 25R length 8575 ft width 150 ft
---- / hdg 248

Location; PAFB
Day. 23 / Time. 02.58 Zulu
* Altimeter: 30.06
* Temperature: 31° c. 87.8°f.
* Wind from: 020° Speed 03 kn.
Dewpoint: 07° c.
Visibility: 10 Statute Miles.
Clouds: Clear (automated report).

PAFB 230258Z AUTO 02003KT 10SM CLR 31/07 A3006 RMK AO2 SLP180 T03090067 57019


Wind From 020°
Speed 03 kn.

 
 
jpsmedia.com for Web Design worldairports.se 2018   terms of use